notre code QR

Villámtérkép további részletek blitzortung!


Csapadékradar további részletek rain snow radar


További állomásunk adatai:

Template documentation
and downloads

And another site

Mobil nézet





No particular awareness of the weather is required.    There are no Weather-warnings

Közeli METAR jelentések

   
LHBP - Budapest
Frissítve: 31-03-2020 11:30
Derült  
Derült  
   Szél: ÉÉK 14.8 km/h
Szél: ÉÉK 14.8 km/h
Hőmérséklet: 5°C
Szélhűtés: 2°C
Harmatpont: -11°C
Páratartalom: 31%
Légnyomás: 1025 hPa
Látótávolság: More than 10 km
Felhő fajták: Derült
LHBP 310930Z 02008KT 350V060 CAVOK 05/M11 Q1025 NOSIG
LHKE - Kecskemét
Frissítve: 31-03-2020 11:15
Derült  
Derült  
   Szél: ÉK 22.2 km/h
Szél: ÉK 22.2 km/h
Hőmérséklet: 5°C
Szélhűtés: 1°C
Harmatpont: -10°C
Páratartalom: 33%
Légnyomás: 1025 hPa
Látótávolság: More than 10 km
Felhő fajták: Derült
LHKE 310915Z 04012KT 350V080 CAVOK 05/M10 Q1025 R12/01//95 NOSIG RMK BLU
LHPP - Pécs
Frissítve: 31-03-2020 11:15
Derült  
Derült  
   Szél: KÉK 18.5 km/h
Szél: KÉK 18.5 km/h
Hőmérséklet: 6°C
Szélhűtés: 3°C
Harmatpont: -9°C
Páratartalom: 34%
Légnyomás: 1024 hPa
Látótávolság: More than 10 km
Felhő fajták: Derült
LHPP 310915Z 06010KT CAVOK 06/M09 Q1024
LHSN - Szolnok
Frissítve: 31-03-2020 11:15
Derült  
Derült  
   Szél: ÉÉK 29.6 km/h
Szél: ÉÉK 29.6 km/h
Hőmérséklet: 5°C
Szélhűtés: 0°C
Harmatpont: -8°C
Páratartalom: 39%
Légnyomás: 1024 hPa
Látótávolság: More than 10 km
Felhő fajták: Derült
LHSN 310915Z 03016KT CAVOK 05/M08 Q1024 NOSIG RMK BLU
LHDC - Debrecen
Frissítve: 31-03-2020 11:15
Derült  
Derült  
   Szél: ÉÉK 25.9 km/h
Szél: ÉÉK 25.9 km/h
Hőmérséklet: 5°C
Szélhűtés: 1°C
Harmatpont: -11°C
Páratartalom: 31%
Légnyomás: 1024 hPa
Látótávolság: More than 10 km
Felhő fajták: Derült
LHDC 310915Z AUTO 03014KT 340V080 CAVOK 05/M11 Q1024
LHPA - Pápa
Frissítve: 31-03-2020 11:15
Kissé felhős  
Kissé felhős  
   Szél: NYÉNY 11.1 km/h
Szél: NYÉNY 11.1 km/h
Hőmérséklet: 4°C
Szélhűtés: 1°C
Harmatpont: -10°C
Páratartalom: 36%
Légnyomás: 1026 hPa
Felhők: Kissé felhős
Látótávolság: More than 10 km
Felhő fajták: Kissé felhős 4000 ft
LHPA 310915Z 29006KT 240V360 9999 FEW040 04/M10 Q1026 NOSIG RMK BLU

Eredeti script  Saratoga-weather.org Adapted for the template by  Weerstation Leuven

Készülékünk:

Weather-program
Meteobridge

Weather-server
My Computer

Meteobridge

My Computer